»·PEaware :: N55VW KSMO-KSMX

N55VW :: KSMO-KSMX

FLIGHT INFORMATION

Flight Status: Arrived
Operator: Privately registered:
United States
More flights under this callsign
Pilot: Dave P. (45)
Aircraft: Unknown
(EPIC)
More flights by this aircraft type
Origin: KSMO Santa Monica Mun
United States
Destination: KSMX Santa Maria Pub/Capt Hancock
United States
More flights between these airports :: More routes between these airports
Route: +SADDE V299 VTU V25 RZS
File this flight plan on PilotEdge
Remarks:
Altitude:
(Current/Filed)
16,000ft
Speed:
(Current/Filed)
315kts
Departed: 09-Jun-17 09:21 PM
Arrived: 09-Jun-17 10:01 PM
Distance/Time
Traveled:
112nm/0:40
Distance/Time
To Go:
Arrived

Flight Plot

Page will automatically refresh every two minutes.


Map Options




Map Legend


Flown Route
Filed Route
Departure Airport
Arrival Airport
Navaid (VOR, NDB)
Fix

Horizontal Profiles

Position Reports

Time Latitude Longitude Heading Altitude Ground
Speed
09-Jun-17 21:11 34.015974 -118.453049 315 180ft 0kts
09-Jun-17 21:12 34.015974 -118.453049 315 180ft 0kts
09-Jun-17 21:13 34.015974 -118.453049 315 180ft 0kts
09-Jun-17 21:14 34.015974 -118.453049 315 180ft 0kts
09-Jun-17 21:15 34.015974 -118.453049 315 180ft 0kts
09-Jun-17 21:16 34.015974 -118.453049 314 180ft 0kts
09-Jun-17 21:17 34.015974 -118.453049 314 180ft 0kts
09-Jun-17 21:18 34.017427 -118.450520 44 180ft 14kts
09-Jun-17 21:19 34.018347 -118.449438 45 180ft 12kts
09-Jun-17 21:20 34.020898 -118.446408 45 180ft 14kts
09-Jun-17 21:21 34.020995 -118.446121 100 180ft 0kts
09-Jun-17 21:22 34.020895 -118.445948 135 180ft 6kts
09-Jun-17 21:23 34.010262 -118.457643 226 640ft 133kts
09-Jun-17 21:24 33.985470 -118.492841 270 2847ft 145kts
09-Jun-17 21:25 33.991042 -118.549960 277 4749ft 180kts
09-Jun-17 21:26 33.997466 -118.610695 277 5983ft 194kts
09-Jun-17 21:27 34.003291 -118.665747 276 5985ft 187kts
09-Jun-17 21:28 34.008209 -118.712282 276 5986ft 185kts
09-Jun-17 21:29 34.015660 -118.782581 276 5986ft 183kts
09-Jun-17 21:30 34.022018 -118.842481 277 5984ft 183kts
09-Jun-17 21:31 34.027371 -118.892503 277 5990ft 182kts
09-Jun-17 21:32 34.036559 -118.961579 303 5977ft 184kts
09-Jun-17 21:33 34.064718 -119.001554 308 7776ft 189kts
09-Jun-17 21:34 34.095390 -119.051538 300 10066ft 194kts
09-Jun-17 21:35 34.125489 -119.103959 300 12311ft 196kts
09-Jun-17 21:36 34.155853 -119.156439 300 14526ft 198kts
09-Jun-17 21:37 34.189700 -119.214887 301 15904ft 221kts
09-Jun-17 21:38 34.228026 -119.281058 302 16027ft 258kts
09-Jun-17 21:39 34.269662 -119.353076 302 16029ft 271kts
09-Jun-17 21:40 34.312375 -119.427129 302 16028ft 276kts
09-Jun-17 21:41 34.353109 -119.497798 301 15904ft 228kts
09-Jun-17 21:42 34.389016 -119.560356 301 13971ft 231kts
09-Jun-17 21:43 34.424780 -119.622781 301 12397ft 232kts
09-Jun-17 21:44 34.460401 -119.685032 301 11013ft 230kts
09-Jun-17 21:45 34.496035 -119.747398 301 9737ft 229kts
09-Jun-17 21:46 34.521682 -119.812148 265 8985ft 204kts
09-Jun-17 21:47 34.521518 -119.875792 270 8206ft 188kts
09-Jun-17 21:48 34.523821 -119.937905 272 7127ft 187kts
09-Jun-17 21:49 34.526774 -120.000053 273 6151ft 189kts
09-Jun-17 21:50 34.529831 -120.061621 273 5657ft 183kts
09-Jun-17 21:51 34.551266 -120.113316 309 5211ft 181kts
09-Jun-17 21:52 34.585156 -120.157304 311 4457ft 170kts
09-Jun-17 21:53 34.615098 -120.195106 311 4457ft 150kts
09-Jun-17 21:54 34.643294 -120.230451 311 3996ft 151kts
09-Jun-17 21:55 34.672752 -120.267277 311 3562ft 153kts
09-Jun-17 21:56 34.701739 -120.303500 311 3558ft 152kts
09-Jun-17 21:57 34.733023 -120.335500 326 2969ft 154kts
09-Jun-17 21:58 34.765823 -120.358409 326 2260ft 131kts
09-Jun-17 21:59 34.797038 -120.379895 327 1849ft 131kts
09-Jun-17 22:00 34.826302 -120.400006 325 1863ft 115kts
09-Jun-17 22:01 34.854040 -120.419110 327 1682ft 113kts
09-Jun-17 22:02 34.881161 -120.432664 325 749ft 95kts
09-Jun-17 22:03 34.896369 -120.450121 319 265ft 19kts
09-Jun-17 22:04 34.898253 -120.450275 0 265ft 3kts
09-Jun-17 22:05 34.898046 -120.448261 125 265ft 14kts
09-Jun-17 22:06 34.897722 -120.447167 138 265ft 0kts
09-Jun-17 22:07 34.897722 -120.447167 138 265ft 0kts
09-Jun-17 22:08 34.897722 -120.447167 138 265ft 0kts

Navigation Log

Ident Type
1. KSMO Airport
2. SADDE Fix
3. VTU Navaid
4. DEANO Fix
5. ZIQOR Fix
6. RZS Navaid
7. KSMX Airport